| time (UTC) | temp C | wind direction | speed KPH | gust KPH | rain 1hr cm | rain 24hr cm | rain mn cm | humidity % | barometer mb |
| 20260906224905 | 22 | 165 | 9.7 | 11.3 | 0.00 | 0.00 | 0.00 | 36 | 1027.7 |
| 20260906224401 | 23 | 112 | 12.9 | 16.1 | 0.00 | 0.00 | 0.00 | 35 | 1027.6 |
| 20260906223857 | 23 | 173 | 17.7 | 17.7 | 0.00 | 0.00 | 0.00 | 34 | 1027.8 |
| 20260906223353 | 23 | 192 | 11.3 | 12.9 | 0.00 | 0.00 | 0.00 | 36 | 1027.7 |
| 20260906222851 | 23 | 210 | 9.7 | 11.3 | 0.00 | 0.00 | 0.00 | 35 | 1027.8 |
| 20260906222350 | 22 | 126 | 11.3 | 16.1 | 0.00 | 0.00 | 0.00 | 36 | 1028.1 |
| 20260906221848 | 22 | 118 | 17.7 | 20.9 | 0.00 | 0.00 | 0.00 | 36 | 1028.1 |
| 20260906221348 | 22 | 134 | 8.0 | 9.7 | 0.00 | 0.00 | 0.00 | 38 | 1028.0 |
| 20260906220843 | 22 | 99 | 11.3 | 12.9 | 0.00 | 0.00 | 0.00 | 38 | 1028.0 |
| 20260906220338 | 22 | 148 | 11.3 | 11.3 | 0.00 | 0.00 | 0.00 | 38 | 1028.1 |
| 20260906215837 | 24 | 137 | 14.5 | 20.9 | 0.00 | 0.00 | 0.00 | 36 | 1028.4 |
| 20260906215332 | 25 | 195 | 3.2 | 4.8 | 0.00 | 0.00 | 0.00 | 25 | 1028.1 |
| 20260906214830 | 25 | 269 | 3.2 | 3.2 | 0.00 | 0.00 | 0.00 | 25 | 1028.1 |
| 20260906214325 | 25 | 198 | 3.2 | 4.8 | 0.00 | 0.00 | 0.00 | 25 | 1028.1 |
| 20260906213824 | 25 | 226 | 3.2 | 3.2 | 0.00 | 0.00 | 0.00 | 25 | 1028.1 |
| 20260906213324 | 25 | 270 | 3.2 | 3.2 | 0.00 | 0.00 | 0.00 | 25 | 1028.1 |
| 20260906212822 | 26 | 294 | 4.8 | 4.8 | 0.00 | 0.00 | 0.00 | 24 | 1028.1 |
| 20260906212317 | 26 | 297 | 4.8 | 6.4 | 0.00 | 0.00 | 0.00 | 23 | 1028.0 |
| 20260906211817 | 27 | 333 | 3.2 | 3.2 | 0.00 | 0.00 | 0.00 | 22 | 1028.0 |
| 20260906211312 | 28 | 272 | 3.2 | 3.2 | 0.00 | 0.00 | 0.00 | 21 | 1028.2 |
| 20260906210813 | 27 | 279 | 3.2 | 3.2 | 0.00 | 0.00 | 0.00 | 23 | 1028.2 |
| 20260906210313 | 27 | 190 | 3.2 | 4.8 | 0.00 | 0.00 | 0.00 | 22 | 1028.5 |
| 20260906205808 | 26 | 258 | 6.4 | 9.7 | 0.00 | 0.00 | 0.00 | 24 | 1028.4 |
| 20260906205306 | 27 | 249 | 3.2 | 3.2 | 0.00 | 0.00 | 0.00 | 23 | 1028.2 |
| 20260906204800 | 27 | 285 | 3.2 | 4.8 | 0.00 | 0.00 | 0.00 | 22 | 1028.4 |
| 20260906204259 | 29 | 200 | 16.1 | 20.9 | 0.00 | 0.00 | 0.00 | 21 | 1028.1 |
| 20260906203758 | 28 | 214 | 4.8 | 6.4 | 0.00 | 0.00 | 0.00 | 21 | 1028.4 |
| 20260906203254 | 28 | 277 | 3.2 | 4.8 | 0.00 | 0.00 | 0.00 | 20 | 1028.5 |
| 20260906202750 | 28 | 194 | 16.1 | 20.9 | 0.00 | 0.00 | 0.00 | 21 | 1028.0 |
| 20260906202250 | 27 | 317 | 6.4 | 6.4 | 0.00 | 0.00 | 0.00 | 22 | 1028.4 |
| 20260906201744 | 27 | 321 | 8.0 | 9.7 | 0.00 | 0.00 | 0.00 | 22 | 1028.5 |
| 20260906201244 | 27 | 337 | 8.0 | 11.3 | 0.00 | 0.00 | 0.00 | 22 | 1028.5 |
| 20260906200740 | 28 | 8 | 4.8 | 4.8 | 0.00 | 0.00 | 0.00 | 21 | 1028.2 |
| 20260906200236 | 28 | 347 | 4.8 | 9.7 | 0.00 | 0.00 | 0.00 | 21 | 1028.6 |
| 20260906195731 | 28 | 90 | 6.4 | 6.4 | 0.00 | 0.00 | 0.00 | 21 | 1028.8 |
| 20260906195227 | 28 | 277 | 4.8 | 6.4 | 0.00 | 0.00 | 0.00 | 21 | 1028.5 |
| 20260906194723 | 27 | 280 | 3.2 | 3.2 | 0.00 | 0.00 | 0.00 | 23 | 1028.9 |
| 20260906194218 | 28 | 298 | 4.8 | 4.8 | 0.00 | 0.00 | 0.00 | 21 | 1028.9 |
| 20260906193713 | 27 | 301 | 1.6 | 1.6 | 0.00 | 0.00 | 0.00 | 23 | 1028.9 |
| 20260906193208 | 28 | 233 | 1.6 | 3.2 | 0.00 | 0.00 | 0.00 | 23 | 1028.9 |
| 20260906192704 | 28 | 287 | 1.6 | 1.6 | 0.00 | 0.00 | 0.00 | 24 | 1029.1 |
| 20260906192204 | 27 | 275 | 4.8 | 9.7 | 0.00 | 0.00 | 0.00 | 24 | 1028.9 |
| 20260906191658 | 27 | 290 | 8.0 | 12.9 | 0.00 | 0.00 | 0.00 | 24 | 1029.4 |
| 20260906191158 | 27 | 100 | 3.2 | 3.2 | 0.00 | 0.00 | 0.00 | 25 | 1029.3 |
| 20260906190652 | 27 | 328 | 3.2 | 4.8 | 0.00 | 0.00 | 0.00 | 25 | 1029.4 |
| 20260906190147 | 27 | 207 | 6.4 | 6.4 | 0.00 | 0.00 | 0.00 | 25 | 1029.5 |
| 20260906185645 | 26 | 282 | 1.6 | 1.6 | 0.00 | 0.00 | 0.00 | 25 | 1029.4 |
| 20260906185145 | 27 | 159 | 4.8 | 4.8 | 0.00 | 0.00 | 0.00 | 25 | 1029.7 |
| 20260906184639 | 25 | 212 | 4.8 | 4.8 | 0.00 | 0.00 | 0.00 | 27 | 1029.8 |
| 20260906184136 | 26 | 145 | 6.4 | 9.7 | 0.00 | 0.00 | 0.00 | 25 | 1029.8 |
| 20260906183631 | 27 | 281 | 4.8 | 6.4 | 0.00 | 0.00 | 0.00 | 25 | 1029.9 |
| 20260906183127 | 26 | 219 | 6.4 | 12.9 | 0.00 | 0.00 | 0.00 | 26 | 1030.1 |
| 20260906182626 | 25 | 300 | 1.6 | 1.6 | 0.00 | 0.00 | 0.00 | 27 | 1029.9 |
| 20260906182123 | 26 | 326 | 6.4 | 9.7 | 0.00 | 0.00 | 0.00 | 27 | 1030.2 |
| 20260906181618 | 25 | 227 | 3.2 | 4.8 | 0.00 | 0.00 | 0.00 | 30 | 1030.6 |
| 20260906181114 | 25 | 282 | 9.7 | 11.3 | 0.00 | 0.00 | 0.00 | 30 | 1030.3 |
| 20260906180609 | 25 | 314 | 1.6 | 1.6 | 0.00 | 0.00 | 0.00 | 31 | 1030.6 |
| 20260906180109 | 25 | 35 | 3.2 | 3.2 | 0.00 | 0.00 | 0.00 | 31 | 1030.6 |
| 20260906175607 | 25 | 307 | 4.8 | 4.8 | 0.00 | 0.00 | 0.00 | 31 | 1030.7 |
| 20260906175102 | 25 | 311 | 0.0 | 1.6 | 0.00 | 0.00 | 0.00 | 31 | 1030.8 |
| 20260906174600 | 25 | 99 | 3.2 | 4.8 | 0.00 | 0.00 | 0.00 | 31 | 1031.0 |
| 20260906174055 | 23 | 332 | 3.2 | 1.6 | 0.00 | 0.00 | 0.00 | 34 | 1031.4 |
| 20260906173551 | 23 | 274 | 4.8 | 4.8 | 0.00 | 0.00 | 0.00 | 34 | 1031.2 |
| 20260906173047 | 23 | 343 | 9.7 | 9.7 | 0.00 | 0.00 | 0.00 | 34 | 1031.0 |
| 20260906172546 | 23 | 69 | 4.8 | 4.8 | 0.00 | 0.00 | 0.00 | 34 | 1031.4 |
| 20260906172042 | 24 | 322 | 4.8 | 6.4 | 0.00 | 0.00 | 0.00 | 32 | 1031.4 |
| 20260906171541 | 24 | 342 | 8.0 | 9.7 | 0.00 | 0.00 | 0.00 | 32 | 1031.4 |
| 20260906171037 | 25 | 86 | 3.2 | 4.8 | 0.00 | 0.00 | 0.00 | 32 | 1031.4 |
| 20260906170533 | 25 | 78 | 8.0 | 9.7 | 0.00 | 0.00 | 0.00 | 31 | 1031.6 |
| 20260906170032 | 25 | 337 | 6.4 | 9.7 | 0.00 | 0.00 | 0.00 | 31 | 1031.5 |
| 20260906165529 | 23 | 46 | 3.2 | 3.2 | 0.00 | 0.00 | 0.00 | 34 | 1031.6 |
| 20260906165024 | 23 | 344 | 3.2 | 3.2 | 0.00 | 0.00 | 0.00 | 34 | 1031.5 |
| 20260906164523 | 23 | 28 | 4.8 | 9.7 | 0.00 | 0.00 | 0.00 | 35 | 1031.5 |
| 20260906164020 | 23 | 17 | 4.8 | 4.8 | 0.00 | 0.00 | 0.00 | 35 | 1031.5 |
| 20260906163520 | 24 | 335 | 3.2 | 3.2 | 0.00 | 0.00 | 0.00 | 32 | 1031.6 |
| 20260906163015 | 23 | 281 | 3.2 | 3.2 | 0.00 | 0.00 | 0.00 | 35 | 1032.0 |
| 20260906162512 | 23 | 56 | 4.8 | 4.8 | 0.00 | 0.00 | 0.00 | 35 | 1031.9 |
| 20260906162007 | 21 | 74 | 4.8 | 4.8 | 0.00 | 0.00 | 0.00 | 39 | 1031.6 |
| 20260906161502 | 21 | 103 | 11.3 | 12.9 | 0.00 | 0.00 | 0.00 | 38 | 1031.9 |
| 20260906161001 | 21 | 101 | 6.4 | 6.4 | 0.00 | 0.00 | 0.00 | 42 | 1032.1 |
| 20260906160501 | 20 | 76 | 1.6 | 3.2 | 0.00 | 0.00 | 0.00 | 44 | 1032.0 |
| 20260906155958 | 20 | 126 | 4.8 | 4.8 | 0.00 | 0.00 | 0.00 | 42 | 1032.4 |
| 20260906155457 | 20 | 208 | 3.2 | 3.2 | 0.00 | 0.00 | 0.00 | 44 | 1032.3 |
| 20260906154953 | 19 | 199 | 3.2 | 4.8 | 0.00 | 0.00 | 0.00 | 46 | 1032.1 |
| 20260906154449 | 18 | 232 | 4.8 | 6.4 | 0.00 | 0.00 | 0.00 | 46 | 1032.5 |
| 20260906153947 | 18 | 209 | 8.0 | 9.7 | 0.00 | 0.00 | 0.00 | 46 | 1032.1 |
| 20260906153446 | 17 | 221 | 4.8 | 4.8 | 0.00 | 0.00 | 0.00 | 49 | 1032.0 |
| 20260906152942 | 17 | 100 | 1.6 | 3.2 | 0.00 | 0.00 | 0.00 | 47 | 1032.1 |
| 20260906152441 | 17 | 260 | 1.6 | 1.6 | 0.00 | 0.00 | 0.00 | 48 | 1032.1 |
| 20260906151940 | 16 | 228 | 1.6 | 3.2 | 0.00 | 0.00 | 0.00 | 52 | 1032.3 |
| 20260906151436 | 16 | 233 | 0.0 | 0.0 | 0.00 | 0.00 | 0.00 | 51 | 1032.1 |
| 20260906150932 | 15 | 188 | 0.0 | 1.6 | 0.00 | 0.00 | 0.00 | 56 | 1032.3 |
| 20260906150427 | 15 | 99 | 1.6 | 1.6 | 0.00 | 0.00 | 0.00 | 58 | 1032.4 |
| 20260906145926 | 15 | 122 | 4.8 | 4.8 | 0.00 | 0.00 | 0.00 | 56 | 1032.4 |
| 20260906145426 | 15 | 145 | 4.8 | 4.8 | 0.00 | 0.00 | 0.00 | 56 | 1032.4 |
| 20260906144920 | 15 | 148 | 4.8 | 6.4 | 0.00 | 0.00 | 0.00 | 57 | 1032.4 |
| 20260906144415 | 15 | 12 | 0.0 | 1.6 | 0.00 | 0.00 | 0.00 | 59 | 1032.4 |
| 20260906143910 | 15 | 189 | 6.4 | 6.4 | 0.00 | 0.00 | 0.00 | 58 | 1032.1 |
| 20260906143406 | 15 | 222 | 3.2 | 4.8 | 0.00 | 0.00 | 0.00 | 59 | 1032.4 |
| 20260906142902 | 14 | 235 | 0.0 | 0.0 | 0.00 | 0.00 | 0.00 | 60 | 1032.8 |
| 20260906142401 | 13 | 208 | 1.6 | 1.6 | 0.00 | 0.00 | 0.00 | 63 | 1032.4 |
| 20260906141856 | 13 | 165 | 3.2 | 3.2 | 0.00 | 0.00 | 0.00 | 65 | 1032.3 |
| 20260906141355 | 12 | 145 | 0.0 | 0.0 | 0.00 | 0.00 | 0.00 | 66 | 1032.3 |
| 20260906140850 | 12 | 156 | 1.6 | 1.6 | 0.00 | 0.00 | 0.00 | 68 | 1032.4 |
| 20260906140345 | 11 | 349 | 0.0 | 0.0 | 0.00 | 0.00 | 0.00 | 70 | 1032.3 |
| 20260906135843 | 11 | 350 | 1.6 | 1.6 | 0.00 | 0.00 | 0.00 | 71 | 1032.3 |
| 20260906135343 | 11 | 58 | 0.0 | 0.0 | 0.00 | 0.00 | 0.00 | 69 | 1032.7 |
| 20260906134839 | 12 | 58 | 3.2 | 1.6 | 0.00 | 0.00 | 0.00 | 68 | 1032.3 |
| 20260906134338 | 12 | 13 | 1.6 | 1.6 | 0.00 | 0.00 | 0.00 | 68 | 1031.9 |
| 20260906133835 | 11 | 308 | 1.6 | 1.6 | 0.00 | 0.00 | 0.00 | 70 | 1032.0 |
| 20260906133330 | 11 | 317 | 3.2 | 3.2 | 0.00 | 0.00 | 0.00 | 72 | 1032.0 |
| 20260906132826 | 10 | 318 | 1.6 | 1.6 | 0.00 | 0.00 | 0.00 | 73 | 1031.9 |
| 20260906132320 | 10 | 317 | 0.0 | 0.0 | 0.00 | 0.00 | 0.00 | 76 | 1032.1 |
| 20260906131816 | 9 | 318 | 1.6 | 1.6 | 0.00 | 0.00 | 0.00 | 78 | 1032.0 |
| 20260906131311 | 8 | 318 | 0.0 | 0.0 | 0.00 | 0.00 | 0.00 | 84 | 1032.0 |
| 20260906130807 | 7 | 318 | 0.0 | 0.0 | 0.00 | 0.00 | 0.00 | 85 | 1031.8 |
| 20260906130306 | 7 | 318 | 0.0 | 0.0 | 0.00 | 0.00 | 0.00 | 83 | 1031.8 |
| 20260906125805 | 8 | 318 | 1.6 | 1.6 | 0.00 | 0.00 | 0.00 | 81 | 1031.8 |
| 20260906125306 | 8 | 319 | 1.6 | 1.6 | 0.00 | 0.00 | 0.00 | 82 | 1031.6 |
| 20260906124758 | 7 | 319 | 1.6 | 1.6 | 0.00 | 0.00 | 0.00 | 83 | 1031.8 |
| 20260906124254 | 7 | 319 | 0.0 | 0.0 | 0.00 | 0.00 | 0.00 | 83 | 1031.6 |
| 20260906123753 | 8 | 319 | 0.0 | 0.0 | 0.00 | 0.00 | 0.00 | 82 | 1031.4 |
| 20260906123248 | 8 | 319 | 1.6 | 1.6 | 0.00 | 0.00 | 0.00 | 79 | 1031.4 |
| 20260906122747 | 9 | 319 | 1.6 | 1.6 | 0.00 | 0.00 | 0.00 | 77 | 1031.6 |
| 20260906122243 | 8 | 319 | 0.0 | 0.0 | 0.00 | 0.00 | 0.00 | 79 | 1031.6 |
| 20260906121739 | 8 | 319 | 1.6 | 1.6 | 0.00 | 0.00 | 0.00 | 79 | 1031.2 |
| 20260906121235 | 8 | 319 | 1.6 | 1.6 | 0.00 | 0.00 | 0.00 | 79 | 1031.4 |
| 20260906120731 | 8 | 319 | 0.0 | 0.0 | 0.00 | 0.00 | 0.00 | 80 | 1031.5 |
| 20260906120228 | 8 | 319 | 1.6 | 1.6 | 0.00 | 0.00 | 0.00 | 79 | 1031.5 |
| 20260906115723 | 9 | 319 | 0.0 | 0.0 | 0.00 | 0.00 | 0.00 | 78 | 1031.4 |
| 20260906115218 | 9 | 319 | 0.0 | 0.0 | 0.00 | 0.00 | 0.00 | 78 | 1031.5 |
| 20260906114717 | 8 | 319 | 1.6 | 1.6 | 0.00 | 0.00 | 0.00 | 79 | 1031.6 |
| 20260906114212 | 8 | 319 | 0.0 | 0.0 | 0.00 | 0.00 | 0.00 | 80 | 1031.6 |
| 20260906113708 | 8 | 319 | 1.6 | 1.6 | 0.00 | 0.00 | 0.00 | 81 | 1031.6 |
| 20260906113207 | 8 | 318 | 0.0 | 0.0 | 0.00 | 0.00 | 0.00 | 80 | 1031.6 |
| 20260906112707 | 8 | 318 | 0.0 | 0.0 | 0.00 | 0.00 | 0.00 | 80 | 1031.8 |
| 20260906112204 | 8 | 318 | 0.0 | 0.0 | 0.00 | 0.00 | 0.00 | 80 | 1031.9 |
| 20260906111703 | 8 | 318 | 0.0 | 0.0 | 0.00 | 0.00 | 0.00 | 80 | 1031.5 |
| 20260906111157 | 9 | 318 | 0.0 | 0.0 | 0.00 | 0.00 | 0.00 | 77 | 1031.5 |
| 20260906110653 | 10 | 319 | 0.0 | 0.0 | 0.00 | 0.00 | 0.00 | 75 | 1031.5 |
| 20260906110148 | 10 | 319 | 1.6 | 1.6 | 0.00 | 0.00 | 0.00 | 77 | 1031.5 |
| 20260906105642 | 10 | 319 | 0.0 | 0.0 | 0.00 | 0.00 | 0.00 | 77 | 1031.6 |
| 20260906105138 | 10 | 319 | 0.0 | 0.0 | 0.00 | 0.00 | 0.00 | 77 | 1031.6 |
| 20260906104637 | 10 | 319 | 1.6 | 1.6 | 0.00 | 0.00 | 0.00 | 78 | 1031.4 |
| 20260906104137 | 9 | 319 | 3.2 | 3.2 | 0.00 | 0.00 | 0.00 | 79 | 1031.5 |
| 20260906103635 | 9 | 319 | 3.2 | 3.2 | 0.00 | 0.00 | 0.00 | 79 | 1031.6 |
| 20260906103131 | 9 | 319 | 1.6 | 1.6 | 0.00 | 0.00 | 0.00 | 79 | 1031.4 |
| 20260906102626 | 10 | 319 | 0.0 | 0.0 | 0.00 | 0.00 | 0.00 | 77 | 1031.5 |
| 20260906102126 | 9 | 319 | 0.0 | 0.0 | 0.00 | 0.00 | 0.00 | 78 | 1031.2 |
| 20260906101626 | 10 | 319 | 0.0 | 0.0 | 0.00 | 0.00 | 0.00 | 77 | 1031.2 |
| 20260906101125 | 10 | 319 | 0.0 | 0.0 | 0.00 | 0.00 | 0.00 | 76 | 1031.4 |
| 20260906100621 | 10 | 319 | 0.0 | 0.0 | 0.00 | 0.00 | 0.00 | 75 | 1031.0 |
| 20260906100116 | 10 | 319 | 1.6 | 1.6 | 0.00 | 0.00 | 0.00 | 75 | 1031.2 |
| 20260906095616 | 10 | 319 | 0.0 | 0.0 | 0.00 | 0.00 | 0.00 | 74 | 1031.4 |
| 20260906095112 | 10 | 319 | 0.0 | 0.0 | 0.00 | 0.00 | 0.00 | 75 | 1031.4 |
| 20260906094610 | 10 | 319 | 1.6 | 1.6 | 0.00 | 0.00 | 0.00 | 76 | 1031.4 |
| 20260906094106 | 10 | 319 | 0.0 | 0.0 | 0.00 | 0.00 | 0.00 | 75 | 1031.2 |
| 20260906093602 | 10 | 319 | 0.0 | 0.0 | 0.00 | 0.00 | 0.00 | 74 | 1031.4 |
| 20260906093057 | 11 | 319 | 0.0 | 0.0 | 0.00 | 0.00 | 0.00 | 73 | 1031.2 |
| 20260906092552 | 11 | 319 | 1.6 | 1.6 | 0.00 | 0.00 | 0.00 | 73 | 1031.1 |
| 20260906092047 | 11 | 319 | 3.2 | 1.6 | 0.00 | 0.00 | 0.00 | 72 | 1031.2 |
| 20260906091543 | 11 | 319 | 0.0 | 0.0 | 0.00 | 0.00 | 0.00 | 71 | 1031.2 |
| 20260906091039 | 11 | 319 | 0.0 | 0.0 | 0.00 | 0.00 | 0.00 | 71 | 1031.2 |
| 20260906090539 | 11 | 319 | 1.6 | 1.6 | 0.00 | 0.00 | 0.00 | 71 | 1031.2 |
| 20260906090034 | 11 | 319 | 1.6 | 1.6 | 0.00 | 0.00 | 0.00 | 71 | 1031.1 |
| 20260906085533 | 10 | 319 | 0.0 | 0.0 | 0.00 | 0.00 | 0.00 | 73 | 1031.1 |
| 20260906085032 | 11 | 319 | 0.0 | 0.0 | 0.00 | 0.00 | 0.00 | 74 | 1031.1 |
| 20260906084527 | 11 | 319 | 0.0 | 1.6 | 0.00 | 0.00 | 0.00 | 72 | 1031.1 |
| 20260906084026 | 11 | 319 | 0.0 | 0.0 | 0.00 | 0.00 | 0.00 | 71 | 1031.2 |
| 20260906083522 | 11 | 319 | 0.0 | 0.0 | 0.00 | 0.00 | 0.00 | 70 | 1031.1 |
| 20260906083021 | 11 | 319 | 1.6 | 1.6 | 0.00 | 0.00 | 0.00 | 70 | 1031.1 |
| 20260906082517 | 11 | 319 | 0.0 | 0.0 | 0.00 | 0.00 | 0.00 | 71 | 1031.2 |
| 20260906082012 | 11 | 319 | 1.6 | 1.6 | 0.00 | 0.00 | 0.00 | 71 | 1031.0 |
| 20260906081508 | 11 | 319 | 0.0 | 0.0 | 0.00 | 0.00 | 0.00 | 71 | 1031.1 |
| 20260906081003 | 11 | 319 | 3.2 | 1.6 | 0.00 | 0.00 | 0.00 | 70 | 1031.2 |
| 20260906080500 | 12 | 319 | 3.2 | 1.6 | 0.00 | 0.00 | 0.00 | 68 | 1031.1 |
| 20260906075955 | 12 | 318 | 0.0 | 0.0 | 0.00 | 0.00 | 0.00 | 69 | 1031.4 |
| 20260906075449 | 12 | 318 | 0.0 | 0.0 | 0.00 | 0.00 | 0.00 | 69 | 1031.4 |
| 20260906074945 | 11 | 318 | 0.0 | 0.0 | 0.00 | 0.00 | 0.00 | 70 | 1031.2 |
| 20260906074445 | 12 | 318 | 0.0 | 0.0 | 0.00 | 0.00 | 0.00 | 69 | 1031.2 |
| 20260906073943 | 12 | 318 | 0.0 | 0.0 | 0.00 | 0.00 | 0.00 | 69 | 1031.4 |
| 20260906073438 | 12 | 318 | 0.0 | 0.0 | 0.00 | 0.00 | 0.00 | 70 | 1031.1 |
| 20260906072935 | 12 | 318 | 0.0 | 0.0 | 0.00 | 0.00 | 0.00 | 70 | 1031.4 |
| 20260906072430 | 12 | 334 | 0.0 | 1.6 | 0.00 | 0.00 | 0.00 | 70 | 1031.2 |
| 20260906071926 | 12 | 336 | 0.0 | 0.0 | 0.00 | 0.00 | 0.00 | 69 | 1031.1 |
| 20260906071421 | 12 | 336 | 0.0 | 0.0 | 0.00 | 0.00 | 0.00 | 67 | 1031.0 |
| 20260906070917 | 13 | 336 | 0.0 | 0.0 | 0.00 | 0.00 | 0.00 | 64 | 1031.2 |
| 20260906070413 | 13 | 336 | 0.0 | 0.0 | 0.00 | 0.00 | 0.00 | 61 | 1031.1 |
| 20260906065909 | 14 | 336 | 0.0 | 0.0 | 0.00 | 0.00 | 0.00 | 60 | 1031.1 |
| 20260906065402 | 13 | 336 | 0.0 | 0.0 | 0.00 | 0.00 | 0.00 | 60 | 1030.8 |
| 20260906064859 | 13 | 336 | 0.0 | 0.0 | 0.00 | 0.00 | 0.00 | 61 | 1031.2 |
| 20260906064355 | 13 | 336 | 0.0 | 0.0 | 0.00 | 0.00 | 0.00 | 61 | 1031.2 |
| 20260906063854 | 13 | 336 | 1.6 | 0.0 | 0.00 | 0.00 | 0.00 | 61 | 1031.1 |
| 20260906063350 | 13 | 338 | 0.0 | 0.0 | 0.00 | 0.00 | 0.00 | 61 | 1031.1 |
| 20260906062845 | 14 | 340 | 0.0 | 0.0 | 0.00 | 0.00 | 0.00 | 60 | 1031.1 |
| 20260906062344 | 15 | 349 | 0.0 | 0.0 | 0.00 | 0.00 | 0.00 | 58 | 1031.2 |
| 20260906061839 | 15 | 349 | 0.0 | 0.0 | 0.00 | 0.00 | 0.00 | 57 | 1031.2 |
| 20260906061336 | 15 | 350 | 0.0 | 0.0 | 0.00 | 0.00 | 0.00 | 56 | 1030.8 |
| 20260906060830 | 16 | 351 | 0.0 | 0.0 | 0.00 | 0.00 | 0.00 | 54 | 1031.1 |
| 20260906060328 | 16 | 351 | 1.6 | 1.6 | 0.00 | 0.00 | 0.00 | 53 | 1031.1 |
| 20260906055824 | 16 | 352 | 0.0 | 0.0 | 0.00 | 0.00 | 0.00 | 52 | 1031.1 |
| 20260906055319 | 16 | 352 | 1.6 | 1.6 | 0.00 | 0.00 | 0.00 | 50 | 1031.2 |
| 20260906054814 | 17 | 52 | 3.2 | 3.2 | 0.00 | 0.00 | 0.00 | 49 | 1031.1 |
| 20260906054309 | 17 | 53 | 3.2 | 3.2 | 0.00 | 0.00 | 0.00 | 50 | 1031.1 |
| 20260906053806 | 16 | 54 | 3.2 | 3.2 | 0.00 | 0.00 | 0.00 | 50 | 1031.0 |
| 20260906053301 | 16 | 29 | 1.6 | 1.6 | 0.00 | 0.00 | 0.00 | 51 | 1031.2 |
| 20260906052756 | 16 | 21 | 0.0 | 1.6 | 0.00 | 0.00 | 0.00 | 51 | 1031.1 |
| 20260906052252 | 16 | 88 | 6.4 | 6.4 | 0.00 | 0.00 | 0.00 | 51 | 1031.4 |
| 20260906051749 | 16 | 105 | 6.4 | 6.4 | 0.00 | 0.00 | 0.00 | 51 | 1031.4 |
| 20260906051249 | 16 | 75 | 3.2 | 4.8 | 0.00 | 0.00 | 0.00 | 51 | 1031.4 |
| 20260906050744 | 16 | 170 | 9.7 | 11.3 | 0.00 | 0.00 | 0.00 | 51 | 1031.4 |
| 20260906050239 | 16 | 102 | 12.9 | 16.1 | 0.00 | 0.00 | 0.00 | 52 | 1031.4 |
| 20260906045738 | 16 | 104 | 6.4 | 9.7 | 0.00 | 0.00 | 0.00 | 54 | 1031.4 |
| 20260906045233 | 15 | 97 | 8.0 | 9.7 | 0.00 | 0.00 | 0.00 | 55 | 1031.4 |
| 20260906044729 | 15 | 101 | 6.4 | 9.7 | 0.00 | 0.00 | 0.00 | 56 | 1031.5 |
| 20260906044224 | 15 | 68 | 1.6 | 1.6 | 0.00 | 0.00 | 0.00 | 57 | 1031.5 |
| 20260906043720 | 15 | 19 | 3.2 | 4.8 | 0.00 | 0.00 | 0.00 | 56 | 1031.4 |
| 20260906043216 | 16 | 110 | 8.0 | 9.7 | 0.00 | 0.00 | 0.00 | 56 | 1031.4 |
| 20260906042715 | 15 | 17 | 0.0 | 0.0 | 0.00 | 0.00 | 0.00 | 58 | 1031.8 |
| 20260906042208 | 15 | 49 | 1.6 | 1.6 | 0.00 | 0.00 | 0.00 | 57 | 1031.5 |
| 20260906041705 | 15 | 75 | 3.2 | 4.8 | 0.00 | 0.00 | 0.00 | 58 | 1031.6 |
| 20260906041205 | 15 | 61 | 4.8 | 6.4 | 0.00 | 0.00 | 0.00 | 60 | 1031.6 |
| 20260906040700 | 15 | 100 | 6.4 | 9.7 | 0.00 | 0.00 | 0.00 | 61 | 1032.1 |
| 20260906040155 | 15 | 129 | 9.7 | 11.3 | 0.00 | 0.00 | 0.00 | 61 | 1031.9 |
| 20260906035651 | 15 | 79 | 9.7 | 11.3 | 0.00 | 0.00 | 0.00 | 61 | 1031.9 |
| 20260906035146 | 15 | 115 | 11.3 | 14.5 | 0.00 | 0.00 | 0.00 | 60 | 1032.0 |
| 20260906034641 | 16 | 95 | 12.9 | 14.5 | 0.00 | 0.00 | 0.00 | 57 | 1032.1 |
| 20260906034136 | 15 | 112 | 14.5 | 16.1 | 0.00 | 0.00 | 0.00 | 56 | 1032.1 |
| 20260906033632 | 16 | 106 | 6.4 | 6.4 | 0.00 | 0.00 | 0.00 | 54 | 1032.0 |
| 20260906033132 | 16 | 100 | 3.2 | 3.2 | 0.00 | 0.00 | 0.00 | 55 | 1031.8 |
| 20260906032629 | 16 | 82 | 4.8 | 4.8 | 0.00 | 0.00 | 0.00 | 55 | 1031.6 |
| 20260906032128 | 16 | 93 | 4.8 | 4.8 | 0.00 | 0.00 | 0.00 | 56 | 1031.9 |
| 20260906031624 | 15 | 107 | 4.8 | 4.8 | 0.00 | 0.00 | 0.00 | 56 | 1031.6 |
| 20260906031119 | 15 | 2 | 3.2 | 3.2 | 0.00 | 0.00 | 0.00 | 58 | 1031.4 |
| 20260906030618 | 15 | 0 | 0.0 | 0.0 | 0.00 | 0.00 | 0.00 | 58 | 1031.4 |
| 20260906030114 | 15 | 19 | 0.0 | 1.6 | 0.00 | 0.00 | 0.00 | 57 | 1031.1 |
| 20260906025613 | 15 | 10 | 1.6 | 1.6 | 0.00 | 0.00 | 0.00 | 58 | 1031.1 |
| 20260906025111 | 15 | 15 | 1.6 | 1.6 | 0.00 | 0.00 | 0.00 | 58 | 1031.0 |
| 20260906024607 | 15 | 350 | 1.6 | 1.6 | 0.00 | 0.00 | 0.00 | 60 | 1031.1 |
| 20260906024101 | 15 | 344 | 3.2 | 3.2 | 0.00 | 0.00 | 0.00 | 60 | 1031.0 |
| 20260906023557 | 15 | 352 | 0.0 | 0.0 | 0.00 | 0.00 | 0.00 | 60 | 1030.8 |
| 20260906023051 | 15 | 350 | 0.0 | 0.0 | 0.00 | 0.00 | 0.00 | 60 | 1030.6 |
| 20260906022547 | 15 | 357 | 0.0 | 0.0 | 0.00 | 0.00 | 0.00 | 59 | 1030.8 |
| 20260906022042 | 16 | 30 | 1.6 | 1.6 | 0.00 | 0.00 | 0.00 | 58 | 1030.6 |
| 20260906021538 | 17 | 30 | 1.6 | 1.6 | 0.00 | 0.00 | 0.00 | 53 | 1030.8 |
| 20260906021037 | 17 | 28 | 1.6 | 1.6 | 0.00 | 0.00 | 0.00 | 50 | 1030.7 |
| 20260906020537 | 17 | 42 | 4.8 | 4.8 | 0.00 | 0.00 | 0.00 | 51 | 1030.5 |
| 20260906020036 | 17 | 114 | 3.2 | 6.4 | 0.00 | 0.00 | 0.00 | 53 | 1030.5 |
| 20260906015535 | 17 | 218 | 3.2 | 4.8 | 0.00 | 0.00 | 0.00 | 53 | 1030.7 |
| 20260906015030 | 17 | 246 | 3.2 | 3.2 | 0.00 | 0.00 | 0.00 | 54 | 1030.5 |
| 20260906014525 | 17 | 222 | 4.8 | 4.8 | 0.00 | 0.00 | 0.00 | 54 | 1030.2 |
| 20260906014021 | 17 | 242 | 3.2 | 3.2 | 0.00 | 0.00 | 0.00 | 53 | 1030.2 |
| 20260906013515 | 17 | 190 | 3.2 | 3.2 | 0.00 | 0.00 | 0.00 | 52 | 1030.5 |
| 20260906013012 | 18 | 243 | 3.2 | 4.8 | 0.00 | 0.00 | 0.00 | 50 | 1030.7 |
| 20260906012507 | 18 | 255 | 1.6 | 1.6 | 0.00 | 0.00 | 0.00 | 48 | 1030.7 |
| 20260906012005 | 18 | 122 | 0.0 | 0.0 | 0.00 | 0.00 | 0.00 | 48 | 1030.5 |
| 20260906011502 | 18 | 20 | 3.2 | 3.2 | 0.00 | 0.00 | 0.00 | 48 | 1030.6 |
| 20260906010956 | 18 | 110 | 6.4 | 6.4 | 0.00 | 0.00 | 0.00 | 48 | 1030.8 |
| 20260906010452 | 18 | 83 | 4.8 | 4.8 | 0.00 | 0.00 | 0.00 | 48 | 1030.7 |
| 20260906005948 | 18 | 87 | 6.4 | 9.7 | 0.00 | 0.00 | 0.00 | 50 | 1030.7 |
| 20260906005447 | 18 | 97 | 6.4 | 6.4 | 0.00 | 0.00 | 0.00 | 49 | 1031.0 |
| 20260906004946 | 18 | 106 | 6.4 | 6.4 | 0.00 | 0.00 | 0.00 | 47 | 1030.7 |
| 20260906004445 | 18 | 30 | 3.2 | 3.2 | 0.00 | 0.00 | 0.00 | 47 | 1030.8 |
| 20260906003942 | 18 | 27 | 3.2 | 3.2 | 0.00 | 0.00 | 0.00 | 48 | 1031.2 |
| 20260906003441 | 18 | 349 | 3.2 | 3.2 | 0.00 | 0.00 | 0.00 | 48 | 1031.1 |
| 20260906002937 | 19 | 282 | 3.2 | 3.2 | 0.00 | 0.00 | 0.00 | 48 | 1031.2 |
| 20260906002436 | 19 | 288 | 0.0 | 1.6 | 0.00 | 0.00 | 0.00 | 49 | 1031.0 |
| 20260906001932 | 19 | 259 | 0.0 | 0.0 | 0.00 | 0.00 | 0.00 | 47 | 1031.0 |
| 20260906001427 | 18 | 292 | 3.2 | 3.2 | 0.00 | 0.00 | 0.00 | 47 | 1030.8 |
| 20260906000922 | 18 | 263 | 4.8 | 4.8 | 0.00 | 0.00 | 0.00 | 49 | 1030.7 |
| 20260906000418 | 19 | 42 | 1.6 | 1.6 | 0.00 | 0.00 | 0.00 | 50 | 1030.6 |
| 20260905235913 | 19 | 351 | 0.0 | 0.0 | 0.00 | 0.00 | 0.00 | 50 | 1030.6 |
| 20260905235407 | 19 | 215 | 6.4 | 4.8 | 0.00 | 0.00 | 0.00 | 45 | 1030.8 |
| 20260905234902 | 19 | 194 | 3.2 | 1.6 | 0.00 | 0.00 | 0.00 | 48 | 1031.0 |
| 20260905234357 | 19 | 264 | 0.0 | 0.0 | 0.00 | 0.00 | 0.00 | 50 | 1030.8 |
| 20260905233852 | 19 | 263 | 3.2 | 3.2 | 0.00 | 0.00 | 0.00 | 48 | 1031.0 |
| 20260905233347 | 20 | 268 | 1.6 | 3.2 | 0.00 | 0.00 | 0.00 | 49 | 1030.8 |
| 20260905232846 | 19 | 250 | 3.2 | 3.2 | 0.00 | 0.00 | 0.00 | 46 | 1030.7 |
| 20260905232343 | 19 | 218 | 4.8 | 4.8 | 0.00 | 0.00 | 0.00 | 47 | 1031.1 |
| 20260905231838 | 20 | 171 | 6.4 | 9.7 | 0.00 | 0.00 | 0.00 | 43 | 1030.6 |
| 20260905231338 | 20 | 135 | 20.9 | 22.5 | 0.00 | 0.00 | 0.00 | 40 | 1030.6 |
| 20260905230836 | 21 | 166 | 17.7 | 17.7 | 0.00 | 0.00 | 0.00 | 37 | 1030.2 |
| 20260905230333 | 21 | 123 | 19.3 | 20.9 | 0.00 | 0.00 | 0.00 | 36 | 1030.2 |
| 20260905225832 | 23 | 139 | 19.3 | 24.1 | 0.00 | 0.00 | 0.00 | 31 | 1030.5 |
| 20260905225327 | 24 | 293 | 1.6 | 1.6 | 0.00 | 0.00 | 0.00 | 29 | 1030.2 |